Auburn, KS

2:33 AM CDT on September 17, 2014 (GMT -0500)
South Pointe Bay Estates | Change Station
CLOSE
Current Station
Personal Weather Station
Location: Auburn, KS
Elevation: 1096 ft
Nearby Weather Stations

Elev 1096 ft 38.95 °N, 95.80 °W | Updated 4 minutes ago

Overcast
Overcast
64.9 °F
Feels Like 64.9 °F
N
2.0
Wind Variable Wind from East
Gusts 4.0 mph

Today
High -- | Low -- °F
--% Chance of Precip.
Yesterday
High -- | Low -- °F
Precip. -- in
7:06 AM 7:28 PM
Last Quarter, 38% visible
Pressure 29.98 in
Visibility 10.0 miles
Clouds Mostly Cloudy 1900 ft
Mostly Cloudy 6000 ft
Dew Point 62 °F
Humidity 90%
Rainfall 0.00 in
Snow Depth Not available.
UV 0.0 out of 12
Pollen 6.80 out of 12
Air Quality Not available.
Flu Activity Not available.
SPECI KFOE 170641Z AUTO 15009KT 10SM BKN019 BKN060 18/15 A2998 RMK AO2 T01830150

More Conditions Fewer Conditions

Pressure 29.98 in
Visibility 10.0 miles
Clouds Mostly Cloudy 1900 ft
Mostly Cloudy 6000 ft
Dew Point 62 °F
Humidity 90%
Rainfall 0.00 in
Snow Depth Not available.
UV 0.0 out of 12
Pollen 6.80 out of 12
Air Quality Not available.
Flu Activity Not available.
SPECI KFOE 170641Z AUTO 15009KT 10SM BKN019 BKN060 18/15 A2998 RMK AO2 T01830150

More Conditions Fewer Conditions

10-Day Weather Forecast

Almanac

Astronomy

Sep. 17, 2014 Rise Set
Actual Time 7:06 AM CDT 7:28 PM CDT
Civil Twilight 6:39 AM CDT 7:54 PM CDT
Nautical Twilight 6:08 AM CDT 8:26 PM CDT
Astronomical Twilight 5:36 AM CDT 8:58 PM CDT
Moon 1:09 AM CDT 3:36 PM CDT
Length of Visible Light 13h 15m
Length of Day
12h 21m
Tomorrow will be 2m 31s shorter.
Last Quarter, 38% of the Moon is Illuminated
Today
Last Quarter
Sep 24
New
Oct 1
First Quarter
Oct 8
Full
Oct 15
Last Quarter

Today's Extremes

State Highs State Lows

Community

WunderPhotos

Upload Photos

1,753,976 photos uploaded!

Nearby

Snow Depth

Station Depth Elevation
No new snow has been reported.

Earthquake Activity

City Distance Mag. Time & Date
No recent earthquake activity has been reported nearby.
Minimum magnitude displayed is 2.5.

Coastal Water Temperatures

Place Temperature
No Stations Reporting

Nearby Weather Stations